sensor_id;sensor_type;location;lat;lon;timestamp;pressure;altitude;pressure_sealevel;temperature;humidity
28628;BME280;15815;46.760;19.604;2023-06-04T00:02:10;100575.81;;;12.98;59.29
28628;BME280;15815;46.760;19.604;2023-06-04T00:04:36;100572.19;;;12.97;58.27
28628;BME280;15815;46.760;19.604;2023-06-04T00:07:02;100582.25;;;13.02;57.88
28628;BME280;15815;46.760;19.604;2023-06-04T00:09:33;100572.56;;;13.03;57.41
28628;BME280;15815;46.760;19.604;2023-06-04T00:11:59;100568.50;;;13.04;57.85
28628;BME280;15815;46.760;19.604;2023-06-04T00:14:25;100564.41;;;13.12;57.92
28628;BME280;15815;46.760;19.604;2023-06-04T00:16:51;100584.47;;;13.28;57.29
28628;BME280;15815;46.760;19.604;2023-06-04T00:19:17;100587.66;;;13.34;57.25
28628;BME280;15815;46.760;19.604;2023-06-04T00:21:45;100594.00;;;13.45;56.36
28628;BME280;15815;46.760;19.604;2023-06-04T00:24:10;100588.78;;;13.44;56.84
28628;BME280;15815;46.760;19.604;2023-06-04T00:26:36;100579.53;;;13.40;56.54
28628;BME280;15815;46.760;19.604;2023-06-04T00:29:02;100574.25;;;13.42;56.83
28628;BME280;15815;46.760;19.604;2023-06-04T00:31:27;100592.72;;;13.53;57.19
28628;BME280;15815;46.760;19.604;2023-06-04T00:33:53;100573.06;;;13.39;56.97
28628;BME280;15815;46.760;19.604;2023-06-04T00:36:19;100579.91;;;13.42;56.57
28628;BME280;15815;46.760;19.604;2023-06-04T00:38:46;100565.81;;;13.38;56.09
28628;BME280;15815;46.760;19.604;2023-06-04T00:41:11;100579.47;;;13.47;56.28
28628;BME280;15815;46.760;19.604;2023-06-04T00:43:37;100579.47;;;13.47;55.34
28628;BME280;15815;46.760;19.604;2023-06-04T00:46:06;100568.22;;;13.40;55.75
28628;BME280;15815;46.760;19.604;2023-06-04T00:48:32;100563.41;;;13.37;55.67
28628;BME280;15815;46.760;19.604;2023-06-04T00:50:58;100573.88;;;13.43;56.38
28628;BME280;15815;46.760;19.604;2023-06-04T00:53:24;100562.75;;;13.22;55.28
28628;BME280;15815;46.760;19.604;2023-06-04T00:55:51;100573.59;;;13.27;55.61
28628;BME280;15815;46.760;19.604;2023-06-04T00:58:17;100559.59;;;13.09;57.14
28628;BME280;15815;46.760;19.604;2023-06-04T01:00:46;100559.59;;;13.09;56.47
28628;BME280;15815;46.760;19.604;2023-06-04T01:03:18;100567.25;;;13.09;55.36
28628;BME280;15815;46.760;19.604;2023-06-04T01:05:51;100556.44;;;13.04;55.21
28628;BME280;15815;46.760;19.604;2023-06-04T01:08:20;100555.19;;;13.08;54.93
28628;BME280;15815;46.760;19.604;2023-06-04T01:10:53;100540.34;;;13.00;55.37
28628;BME280;15815;46.760;19.604;2023-06-04T01:13:20;100558.06;;;13.01;55.60
28628;BME280;15815;46.760;19.604;2023-06-04T01:15:45;100562.41;;;13.09;55.51
28628;BME280;15815;46.760;19.604;2023-06-04T01:18:16;100550.44;;;12.98;55.94
28628;BME280;15815;46.760;19.604;2023-06-04T01:20:49;100572.50;;;13.10;55.66
28628;BME280;15815;46.760;19.604;2023-06-04T01:26:09;100565.28;;;13.06;55.97
28628;BME280;15815;46.760;19.604;2023-06-04T01:28:36;100562.50;;;13.02;55.62
28628;BME280;15815;46.760;19.604;2023-06-04T01:31:05;100561.72;;;12.98;55.98
28628;BME280;15815;46.760;19.604;2023-06-04T01:33:31;100566.53;;;13.01;55.94
28628;BME280;15815;46.760;19.604;2023-06-04T01:35:58;100577.75;;;13.08;56.55
28628;BME280;15815;46.760;19.604;2023-06-04T01:38:24;100583.78;;;13.17;56.96
28628;BME280;15815;46.760;19.604;2023-06-04T01:40:50;100584.53;;;13.14;56.47
28628;BME280;15815;46.760;19.604;2023-06-04T01:43:16;100586.97;;;13.16;56.23
28628;BME280;15815;46.760;19.604;2023-06-04T01:45:42;100585.75;;;13.20;56.48
28628;BME280;15815;46.760;19.604;2023-06-04T01:48:08;100560.44;;;13.06;56.72
28628;BME280;15815;46.760;19.604;2023-06-04T01:50:33;100570.09;;;13.09;56.49
28628;BME280;15815;46.760;19.604;2023-06-04T01:52:59;100558.50;;;12.96;56.56
28628;BME280;15815;46.760;19.604;2023-06-04T01:55:25;100582.19;;;13.09;56.64
28628;BME280;15815;46.760;19.604;2023-06-04T01:57:51;100566.13;;;12.99;56.53
28628;BME280;15815;46.760;19.604;2023-06-04T02:00:17;100584.53;;;13.14;56.68
28628;BME280;15815;46.760;19.604;2023-06-04T02:02:45;100580.53;;;13.15;56.79
28628;BME280;15815;46.760;19.604;2023-06-04T02:05:14;100583.34;;;13.15;57.36
28628;BME280;15815;46.760;19.604;2023-06-04T02:07:42;100579.69;;;13.22;57.33
28628;BME280;15815;46.760;19.604;2023-06-04T02:10:09;100595.78;;;13.25;57.10
28628;BME280;15815;46.760;19.604;2023-06-04T02:12:40;100590.19;;;13.14;56.38
28628;BME280;15815;46.760;19.604;2023-06-04T02:15:10;100577.34;;;13.10;56.32
28628;BME280;15815;46.760;19.604;2023-06-04T02:17:36;100566.06;;;13.06;56.29
28628;BME280;15815;46.760;19.604;2023-06-04T02:20:01;100578.53;;;13.12;55.81
28628;BME280;15815;46.760;19.604;2023-06-04T02:22:27;100571.66;;;13.20;56.67
28628;BME280;15815;46.760;19.604;2023-06-04T02:24:54;100583.59;;;13.35;56.00
28628;BME280;15815;46.760;19.604;2023-06-04T02:27:20;100595.66;;;13.43;55.91
28628;BME280;15815;46.760;19.604;2023-06-04T02:29:45;100576.28;;;13.41;55.38
28628;BME280;15815;46.760;19.604;2023-06-04T02:32:11;100584.28;;;13.50;55.66
28628;BME280;15815;46.760;19.604;2023-06-04T02:34:38;100590.31;;;13.52;56.02
28628;BME280;15815;46.760;19.604;2023-06-04T02:37:04;100602.06;;;13.47;55.52
28628;BME280;15815;46.760;19.604;2023-06-04T02:39:30;100602.78;;;13.54;55.38
28628;BME280;15815;46.760;19.604;2023-06-04T02:41:58;100573.88;;;13.43;55.29
28628;BME280;15815;46.760;19.604;2023-06-04T02:44:24;100575.47;;;13.41;55.46
28628;BME280;15815;46.760;19.604;2023-06-04T02:46:49;100579.13;;;13.38;56.08
28628;BME280;15815;46.760;19.604;2023-06-04T02:49:15;100586.72;;;13.48;55.29
28628;BME280;15815;46.760;19.604;2023-06-04T02:51:41;100593.56;;;13.50;55.59
28628;BME280;15815;46.760;19.604;2023-06-04T02:54:07;100591.16;;;13.49;55.47
28628;BME280;15815;46.760;19.604;2023-06-04T02:56:33;100600.34;;;13.56;55.39
28628;BME280;15815;46.760;19.604;2023-06-04T02:58:59;100578.72;;;13.39;55.80
28628;BME280;15815;46.760;19.604;2023-06-04T03:01:25;100583.53;;;13.46;54.99
28628;BME280;15815;46.760;19.604;2023-06-04T03:03:54;100607.19;;;13.59;54.69
28628;BME280;15815;46.760;19.604;2023-06-04T03:06:21;100603.63;;;13.51;55.35
28628;BME280;15815;46.760;19.604;2023-06-04T03:08:48;100605.97;;;13.60;56.04
28628;BME280;15815;46.760;19.604;2023-06-04T03:11:20;100590.00;;;13.43;54.50
28628;BME280;15815;46.760;19.604;2023-06-04T03:13:46;100588.78;;;13.44;54.77
28628;BME280;15815;46.760;19.604;2023-06-04T03:16:12;100595.91;;;13.55;54.90
28628;BME280;15815;46.760;19.604;2023-06-04T03:18:39;100580.31;;;13.44;55.13
28628;BME280;15815;46.760;19.604;2023-06-04T03:21:05;100585.16;;;13.43;55.12
28628;BME280;15815;46.760;19.604;2023-06-04T03:23:32;100599.16;;;13.54;54.88
28628;BME280;15815;46.760;19.604;2023-06-04T03:26:04;100601.91;;;13.61;55.09
28628;BME280;15815;46.760;19.604;2023-06-04T03:28:30;100583.81;;;13.55;55.07
28628;BME280;15815;46.760;19.604;2023-06-04T03:30:56;100594.63;;;13.64;54.89
28628;BME280;15815;46.760;19.604;2023-06-04T03:33:22;100600.22;;;13.71;56.20
28628;BME280;15815;46.760;19.604;2023-06-04T03:35:49;100603.31;;;13.83;55.37
28628;BME280;15815;46.760;19.604;2023-06-04T03:38:15;100588.75;;;13.85;55.82
28628;BME280;15815;46.760;19.604;2023-06-04T03:40:40;100607.19;;;13.97;55.80
28628;BME280;15815;46.760;19.604;2023-06-04T03:43:06;100607.13;;;14.04;55.68
28628;BME280;15815;46.760;19.604;2023-06-04T03:45:32;100591.50;;;13.92;55.62
28628;BME280;15815;46.760;19.604;2023-06-04T03:47:58;100613.69;;;13.93;55.37
28628;BME280;15815;46.760;19.604;2023-06-04T03:50:25;100595.72;;;13.77;55.78
28628;BME280;15815;46.760;19.604;2023-06-04T03:52:50;100603.97;;;13.95;55.48
28628;BME280;15815;46.760;19.604;2023-06-04T03:55:16;100603.22;;;13.90;55.83
28628;BME280;15815;46.760;19.604;2023-06-04T03:57:43;100615.22;;;14.02;55.50
28628;BME280;15815;46.760;19.604;2023-06-04T04:00:09;100614.34;;;14.08;55.26
28628;BME280;15815;46.760;19.604;2023-06-04T04:02:35;100602.59;;;14.10;55.68
28628;BME280;15815;46.760;19.604;2023-06-04T04:05:00;100617.59;;;14.07;55.00
28628;BME280;15815;46.760;19.604;2023-06-04T04:07:27;100617.22;;;14.05;54.84
28628;BME280;15815;46.760;19.604;2023-06-04T04:09:55;100616.81;;;14.03;54.94
28628;BME280;15815;46.760;19.604;2023-06-04T04:12:21;100631.16;;;14.19;54.53
28628;BME280;15815;46.760;19.604;2023-06-04T04:14:47;100621.63;;;14.06;54.75
28628;BME280;15815;46.760;19.604;2023-06-04T04:17:16;100613.44;;;14.15;54.77
28628;BME280;15815;46.760;19.604;2023-06-04T04:19:42;100639.00;;;14.38;54.13
28628;BME280;15815;46.760;19.604;2023-06-04T04:22:09;100620.91;;;14.32;54.52
28628;BME280;15815;46.760;19.604;2023-06-04T04:24:35;100630.16;;;14.36;53.62
28628;BME280;15815;46.760;19.604;2023-06-04T04:27:01;100630.94;;;14.37;54.36
28628;BME280;15815;46.760;19.604;2023-06-04T04:29:27;100640.19;;;14.44;54.60
28628;BME280;15815;46.760;19.604;2023-06-04T04:31:53;100620.38;;;14.44;54.24
28628;BME280;15815;46.760;19.604;2023-06-04T04:34:19;100631.59;;;14.51;54.16
28628;BME280;15815;46.760;19.604;2023-06-04T04:36:45;100628.38;;;14.49;54.20
28628;BME280;15815;46.760;19.604;2023-06-04T04:39:10;100638.81;;;14.56;53.89
28628;BME280;15815;46.760;19.604;2023-06-04T04:41:39;100646.00;;;14.64;53.93
28628;BME280;15815;46.760;19.604;2023-06-04T04:44:05;100638.69;;;14.67;54.16
28628;BME280;15815;46.760;19.604;2023-06-04T04:46:31;100646.97;;;14.81;53.62
28628;BME280;15815;46.760;19.604;2023-06-04T04:48:57;100643.75;;;14.79;53.47
28628;BME280;15815;46.760;19.604;2023-06-04T04:51:24;100643.03;;;15.02;53.48
28628;BME280;15815;46.760;19.604;2023-06-04T04:53:49;100645.59;;;15.70;52.28
28628;BME280;15815;46.760;19.604;2023-06-04T04:56:15;100644.22;;;15.78;52.01
28628;BME280;15815;46.760;19.604;2023-06-04T04:58:41;100620.66;;;15.61;52.87
28628;BME280;15815;46.760;19.604;2023-06-04T05:01:06;100652.06;;;15.94;52.04
28628;BME280;15815;46.760;19.604;2023-06-04T05:03:32;100638.94;;;15.80;52.30
28628;BME280;15815;46.760;19.604;2023-06-04T05:05:58;100630.53;;;15.96;52.01
28628;BME280;15815;46.760;19.604;2023-06-04T05:08:26;100645.84;;;16.22;51.41
28628;BME280;15815;46.760;19.604;2023-06-04T05:10:52;100647.28;;;16.30;50.87
28628;BME280;15815;46.760;19.604;2023-06-04T05:13:18;100649.88;;;16.61;50.67
28628;BME280;15815;46.760;19.604;2023-06-04T05:15:47;100644.13;;;16.64;50.61
28628;BME280;15815;46.760;19.604;2023-06-04T05:18:13;100668.03;;;16.67;50.67
28628;BME280;15815;46.760;19.604;2023-06-04T05:20:38;100656.03;;;17.48;49.77
28628;BME280;15815;46.760;19.604;2023-06-04T05:23:04;100651.59;;;17.79;50.34
28628;BME280;15815;46.760;19.604;2023-06-04T05:25:30;100653.63;;;18.53;50.71
28628;BME280;15815;46.760;19.604;2023-06-04T05:28:02;100655.09;;;19.12;49.50
28628;BME280;15815;46.760;19.604;2023-06-04T05:30:27;100682.44;;;19.09;50.14
28628;BME280;15815;46.760;19.604;2023-06-04T05:32:56;100668.41;;;18.77;50.52
28628;BME280;15815;46.760;19.604;2023-06-04T05:35:21;100672.66;;;19.10;49.33
28628;BME280;15815;46.760;19.604;2023-06-04T05:37:47;100682.63;;;20.04;45.01
28628;BME280;15815;46.760;19.604;2023-06-04T05:40:13;100667.47;;;20.29;44.47
28628;BME280;15815;46.760;19.604;2023-06-04T05:42:41;100693.97;;;20.17;45.62
28628;BME280;15815;46.760;19.604;2023-06-04T05:45:07;100660.59;;;19.19;44.49
28628;BME280;15815;46.760;19.604;2023-06-04T05:47:33;100682.47;;;19.60;45.06
28628;BME280;15815;46.760;19.604;2023-06-04T05:49:59;100661.00;;;19.43;45.34
28628;BME280;15815;46.760;19.604;2023-06-04T05:52:24;100679.50;;;19.51;44.45
28628;BME280;15815;46.760;19.604;2023-06-04T05:54:50;100676.66;;;19.38;44.59
28628;BME280;15815;46.760;19.604;2023-06-04T05:57:17;100685.31;;;19.48;44.60
28628;BME280;15815;46.760;19.604;2023-06-04T05:59:43;100664.00;;;19.14;44.52
28628;BME280;15815;46.760;19.604;2023-06-04T06:02:08;100664.91;;;19.24;44.51
28628;BME280;15815;46.760;19.604;2023-06-04T06:04:34;100675.03;;;19.12;44.63
28628;BME280;15815;46.760;19.604;2023-06-04T06:07:01;100666.16;;;19.10;45.08
28628;BME280;15815;46.760;19.604;2023-06-04T06:09:26;100676.53;;;19.29;44.35
28628;BME280;15815;46.760;19.604;2023-06-04T06:11:52;100672.00;;;19.19;43.98
28628;BME280;15815;46.760;19.604;2023-06-04T06:14:18;100679.03;;;19.40;45.02
28628;BME280;15815;46.760;19.604;2023-06-04T06:16:44;100691.38;;;19.75;44.06
28628;BME280;15815;46.760;19.604;2023-06-04T06:19:09;100698.72;;;20.32;43.55
28628;BME280;15815;46.760;19.604;2023-06-04T06:21:35;100681.59;;;20.98;42.88
28628;BME280;15815;46.760;19.604;2023-06-04T06:24:00;100695.72;;;22.13;42.61
28628;BME280;15815;46.760;19.604;2023-06-04T06:26:26;100685.84;;;22.41;42.65
28628;BME280;15815;46.760;19.604;2023-06-04T06:28:51;100696.16;;;23.45;43.28
28628;BME280;15815;46.760;19.604;2023-06-04T06:31:17;100693.13;;;23.82;42.21
28628;BME280;15815;46.760;19.604;2023-06-04T06:33:44;100708.84;;;24.19;38.58
28628;BME280;15815;46.760;19.604;2023-06-04T06:36:10;100704.00;;;24.64;37.96
28628;BME280;15815;46.760;19.604;2023-06-04T06:38:40;100704.59;;;25.07;37.34
28628;BME280;15815;46.760;19.604;2023-06-04T06:41:06;100714.59;;;25.26;38.95
28628;BME280;15815;46.760;19.604;2023-06-04T06:43:32;100703.56;;;25.89;37.94
28628;BME280;15815;46.760;19.604;2023-06-04T06:45:58;100700.56;;;26.18;35.45
28628;BME280;15815;46.760;19.604;2023-06-04T06:48:24;100702.69;;;25.33;34.73
28628;BME280;15815;46.760;19.604;2023-06-04T06:50:49;100705.03;;;26.19;34.33
28628;BME280;15815;46.760;19.604;2023-06-04T06:53:15;100704.34;;;26.97;34.17
28628;BME280;15815;46.760;19.604;2023-06-04T06:55:41;100683.72;;;27.35;33.90
28628;BME280;15815;46.760;19.604;2023-06-04T06:58:06;100699.63;;;27.20;33.40
28628;BME280;15815;46.760;19.604;2023-06-04T07:00:32;100714.06;;;26.73;33.79
28628;BME280;15815;46.760;19.604;2023-06-04T07:02:58;100704.69;;;26.78;32.97
28628;BME280;15815;46.760;19.604;2023-06-04T07:05:23;100680.56;;;27.33;33.32
28628;BME280;15815;46.760;19.604;2023-06-04T07:07:49;100713.91;;;28.09;34.48
28628;BME280;15815;46.760;19.604;2023-06-04T07:10:15;100697.38;;;28.15;32.41
28628;BME280;15815;46.760;19.604;2023-06-04T07:12:41;100705.38;;;28.31;32.42
28628;BME280;15815;46.760;19.604;2023-06-04T07:15:07;100695.94;;;27.88;32.78
28628;BME280;15815;46.760;19.604;2023-06-04T07:17:33;100706.06;;;28.20;31.68
28628;BME280;15815;46.760;19.604;2023-06-04T07:19:59;100722.09;;;28.16;30.47
28628;BME280;15815;46.760;19.604;2023-06-04T07:22:25;100703.84;;;27.93;31.36
28628;BME280;15815;46.760;19.604;2023-06-04T07:24:53;100718.94;;;28.79;31.15
28628;BME280;15815;46.760;19.604;2023-06-04T07:27:23;100712.44;;;29.17;29.66
28628;BME280;15815;46.760;19.604;2023-06-04T07:29:49;100702.97;;;29.22;27.66
28628;BME280;15815;46.760;19.604;2023-06-04T07:32:14;100706.41;;;29.71;27.02
28628;BME280;15815;46.760;19.604;2023-06-04T07:34:40;100700.88;;;29.51;27.92
28628;BME280;15815;46.760;19.604;2023-06-04T07:37:07;100714.78;;;29.80;29.94
28628;BME280;15815;46.760;19.604;2023-06-04T07:39:39;100698.25;;;29.59;28.49
28628;BME280;15815;46.760;19.604;2023-06-04T07:42:23;100694.53;;;29.02;29.21
28628;BME280;15815;46.760;19.604;2023-06-04T07:45:08;100698.63;;;28.56;27.27
28628;BME280;15815;46.760;19.604;2023-06-04T07:47:36;100684.75;;;28.07;27.94
28628;BME280;15815;46.760;19.604;2023-06-04T07:50:02;100685.81;;;27.66;28.66
28628;BME280;15815;46.760;19.604;2023-06-04T07:52:28;100709.16;;;27.63;29.48
28628;BME280;15815;46.760;19.604;2023-06-04T07:54:54;100703.28;;;27.52;28.79
28628;BME280;15815;46.760;19.604;2023-06-04T07:57:23;100707.22;;;27.17;28.29
28628;BME280;15815;46.760;19.604;2023-06-04T07:59:49;100701.06;;;26.84;27.65
28628;BME280;15815;46.760;19.604;2023-06-04T08:02:15;100715.00;;;26.85;28.64
28628;BME280;15815;46.760;19.604;2023-06-04T08:04:41;100712.16;;;26.24;30.13
28628;BME280;15815;46.760;19.604;2023-06-04T08:07:07;100720.44;;;26.16;29.70
28628;BME280;15815;46.760;19.604;2023-06-04T08:09:32;100724.38;;;26.34;29.64
28628;BME280;15815;46.760;19.604;2023-06-04T08:11:59;100713.81;;;26.31;29.46
28628;BME280;15815;46.760;19.604;2023-06-04T08:14:25;100715.97;;;26.15;30.56
28628;BME280;15815;46.760;19.604;2023-06-04T08:16:51;100721.22;;;25.97;30.85
28628;BME280;15815;46.760;19.604;2023-06-04T08:19:16;100725.16;;;25.99;31.36
28628;BME280;15815;46.760;19.604;2023-06-04T08:21:42;100715.72;;;25.78;31.84
28628;BME280;15815;46.760;19.604;2023-06-04T08:24:09;100716.47;;;26.14;31.18
28628;BME280;15815;46.760;19.604;2023-06-04T08:26:34;100719.75;;;26.42;30.58
28628;BME280;15815;46.760;19.604;2023-06-04T08:29:02;100724.72;;;26.62;30.17
28628;BME280;15815;46.760;19.604;2023-06-04T08:31:28;100712.50;;;26.98;30.98
28628;BME280;15815;46.760;19.604;2023-06-04T08:33:54;100717.56;;;26.83;31.11
28628;BME280;15815;46.760;19.604;2023-06-04T08:36:20;100724.03;;;26.72;30.48
28628;BME280;15815;46.760;19.604;2023-06-04T08:38:46;100713.06;;;26.76;30.84
28628;BME280;15815;46.760;19.604;2023-06-04T08:41:26;100709.44;;;26.82;29.47
28628;BME280;15815;46.760;19.604;2023-06-04T08:43:56;100713.28;;;26.73;30.14
28628;BME280;15815;46.760;19.604;2023-06-04T08:46:23;100705.75;;;26.55;30.58
28628;BME280;15815;46.760;19.604;2023-06-04T08:48:49;100710.59;;;26.90;30.89
28628;BME280;15815;46.760;19.604;2023-06-04T08:51:15;100709.94;;;27.00;31.44
28628;BME280;15815;46.760;19.604;2023-06-04T08:53:42;100721.06;;;27.13;31.19
28628;BME280;15815;46.760;19.604;2023-06-04T08:56:08;100713.31;;;26.99;30.81
28628;BME280;15815;46.760;19.604;2023-06-04T08:58:36;100705.06;;;26.86;29.76
28628;BME280;15815;46.760;19.604;2023-06-04T09:01:02;100713.63;;;26.80;30.61
28628;BME280;15815;46.760;19.604;2023-06-04T09:03:29;100718.59;;;26.80;29.91
28628;BME280;15815;46.760;19.604;2023-06-04T09:05:55;100709.84;;;26.95;30.47
28628;BME280;15815;46.760;19.604;2023-06-04T09:08:23;100717.81;;;26.79;31.59
28628;BME280;15815;46.760;19.604;2023-06-04T09:10:50;100703.81;;;27.19;32.34
28628;BME280;15815;46.760;19.604;2023-06-04T09:13:21;100705.66;;;26.96;33.52
28628;BME280;15815;46.760;19.604;2023-06-04T09:16:01;100714.66;;;27.29;30.68
28628;BME280;15815;46.760;19.604;2023-06-04T09:18:27;100713.06;;;27.28;32.26
28628;BME280;15815;46.760;19.604;2023-06-04T09:21:13;100721.50;;;27.32;31.29
28628;BME280;15815;46.760;19.604;2023-06-04T09:23:48;100715.38;;;27.56;28.98
28628;BME280;15815;46.760;19.604;2023-06-04T09:26:14;100718.72;;;27.43;29.20
28628;BME280;15815;46.760;19.604;2023-06-04T09:28:44;100720.47;;;28.04;28.01
28628;BME280;15815;46.760;19.604;2023-06-04T09:31:15;100708.03;;;28.40;30.30
28628;BME280;15815;46.760;19.604;2023-06-04T09:33:48;100714.72;;;28.15;31.55
28628;BME280;15815;46.760;19.604;2023-06-04T09:36:15;100711.13;;;29.18;29.98
28628;BME280;15815;46.760;19.604;2023-06-04T09:38:40;100717.28;;;28.50;27.72
28628;BME280;15815;46.760;19.604;2023-06-04T09:41:13;100714.72;;;28.74;29.13
28628;BME280;15815;46.760;19.604;2023-06-04T09:43:39;100717.81;;;28.54;30.93
28628;BME280;15815;46.760;19.604;2023-06-04T09:46:12;100725.47;;;28.62;30.65
28628;BME280;15815;46.760;19.604;2023-06-04T09:48:39;100715.41;;;28.47;28.80
28628;BME280;15815;46.760;19.604;2023-06-04T09:51:13;100716.66;;;29.72;28.07
28628;BME280;15815;46.760;19.604;2023-06-04T09:53:39;100717.44;;;29.11;28.42
28628;BME280;15815;46.760;19.604;2023-06-04T09:56:06;100712.97;;;29.38;28.27
28628;BME280;15815;46.760;19.604;2023-06-04T09:58:32;100719.44;;;30.86;26.77
28628;BME280;15815;46.760;19.604;2023-06-04T10:01:03;100718.47;;;30.67;24.42
28628;BME280;15815;46.760;19.604;2023-06-04T10:03:34;100726.69;;;30.63;26.98
28628;BME280;15815;46.760;19.604;2023-06-04T10:06:03;100712.19;;;30.57;24.74
28628;BME280;15815;46.760;19.604;2023-06-04T10:08:30;100713.47;;;30.67;27.39
28628;BME280;15815;46.760;19.604;2023-06-04T10:10:58;100715.41;;;30.95;26.18
28628;BME280;15815;46.760;19.604;2023-06-04T10:16:00;100710.59;;;29.14;25.52
28628;BME280;15815;46.760;19.604;2023-06-04T10:18:29;100714.00;;;28.85;27.23
28628;BME280;15815;46.760;19.604;2023-06-04T10:20:56;100696.66;;;29.18;28.01
28628;BME280;15815;46.760;19.604;2023-06-04T10:23:23;100689.84;;;29.49;29.21
28628;BME280;15815;46.760;19.604;2023-06-04T10:25:49;100717.69;;;29.92;27.03
28628;BME280;15815;46.760;19.604;2023-06-04T10:28:15;100703.72;;;29.84;27.07
28628;BME280;15815;46.760;19.604;2023-06-04T10:30:43;100707.13;;;30.05;25.74
28628;BME280;15815;46.760;19.604;2023-06-04T10:33:09;100701.19;;;30.44;25.81
28628;BME280;15815;46.760;19.604;2023-06-04T10:35:37;100705.53;;;30.10;24.22
28628;BME280;15815;46.760;19.604;2023-06-04T10:38:08;100701.38;;;29.89;24.20
28628;BME280;15815;46.760;19.604;2023-06-04T10:40:35;100701.34;;;30.05;24.54
28628;BME280;15815;46.760;19.604;2023-06-04T10:43:08;100696.59;;;30.13;23.46
28628;BME280;15815;46.760;19.604;2023-06-04T10:45:34;100669.75;;;29.91;26.88
28628;BME280;15815;46.760;19.604;2023-06-04T10:48:04;100683.00;;;29.47;24.58
28628;BME280;15815;46.760;19.604;2023-06-04T10:50:35;100693.53;;;29.33;24.86
28628;BME280;15815;46.760;19.604;2023-06-04T10:53:01;100696.13;;;29.14;24.40
28628;BME280;15815;46.760;19.604;2023-06-04T10:55:27;100691.94;;;29.15;25.64
28628;BME280;15815;46.760;19.604;2023-06-04T10:57:57;100682.97;;;28.91;25.29
28628;BME280;15815;46.760;19.604;2023-06-04T11:00:43;100685.59;;;28.89;24.75
28628;BME280;15815;46.760;19.604;2023-06-04T11:03:10;100681.16;;;29.05;25.69
28628;BME280;15815;46.760;19.604;2023-06-04T11:05:42;100675.63;;;29.12;26.46
28628;BME280;15815;46.760;19.604;2023-06-04T11:08:09;100687.94;;;28.90;26.54
28628;BME280;15815;46.760;19.604;2023-06-04T11:10:40;100675.97;;;28.38;26.03
28628;BME280;15815;46.760;19.604;2023-06-04T11:13:06;100661.06;;;28.68;27.15
28628;BME280;15815;46.760;19.604;2023-06-04T11:18:07;100690.50;;;28.60;27.82
28628;BME280;15815;46.760;19.604;2023-06-04T11:20:33;100677.00;;;28.35;26.57
28628;BME280;15815;46.760;19.604;2023-06-04T11:22:59;100675.56;;;28.08;27.13
28628;BME280;15815;46.760;19.604;2023-06-04T11:25:26;100667.41;;;28.07;26.07
28628;BME280;15815;46.760;19.604;2023-06-04T11:27:53;100690.31;;;28.21;26.47
28628;BME280;15815;46.760;19.604;2023-06-04T11:30:19;100686.50;;;28.41;26.28
28628;BME280;15815;46.760;19.604;2023-06-04T11:32:45;100669.16;;;27.87;25.36
28628;BME280;15815;46.760;19.604;2023-06-04T11:35:14;100691.19;;;27.85;24.90
28628;BME280;15815;46.760;19.604;2023-06-04T11:37:40;100673.81;;;27.74;24.85
28628;BME280;15815;46.760;19.604;2023-06-04T11:42:31;100678.84;;;27.84;24.38
28628;BME280;15815;46.760;19.604;2023-06-04T11:44:57;100673.38;;;27.55;26.28
28628;BME280;15815;46.760;19.604;2023-06-04T11:47:24;100667.16;;;27.62;25.96
28628;BME280;15815;46.760;19.604;2023-06-04T11:49:57;100664.09;;;27.71;26.26
28628;BME280;15815;46.760;19.604;2023-06-04T11:52:23;100670.69;;;27.46;26.42
28628;BME280;15815;46.760;19.604;2023-06-04T11:54:49;100660.84;;;27.26;25.44
28628;BME280;15815;46.760;19.604;2023-06-04T11:57:15;100651.53;;;27.11;26.71
28628;BME280;15815;46.760;19.604;2023-06-04T11:59:41;100661.13;;;27.28;26.37
28628;BME280;15815;46.760;19.604;2023-06-04T12:02:07;100664.94;;;27.46;26.50
28628;BME280;15815;46.760;19.604;2023-06-04T12:04:33;100641.75;;;27.34;26.71
28628;BME280;15815;46.760;19.604;2023-06-04T12:07:01;100646.41;;;27.26;26.56
28628;BME280;15815;46.760;19.604;2023-06-04T12:09:29;100651.94;;;27.30;26.68
28628;BME280;15815;46.760;19.604;2023-06-04T12:11:58;100650.69;;;27.36;27.13
28628;BME280;15815;46.760;19.604;2023-06-04T12:14:25;100645.25;;;27.44;27.87
28628;BME280;15815;46.760;19.604;2023-06-04T12:19:27;100651.72;;;27.33;27.57
28628;BME280;15815;46.760;19.604;2023-06-04T12:22:06;100635.69;;;27.32;28.03
28628;BME280;15815;46.760;19.604;2023-06-04T12:24:33;100648.81;;;27.33;28.77
28628;BME280;15815;46.760;19.604;2023-06-04T12:27:03;100655.63;;;27.30;28.21
28628;BME280;15815;46.760;19.604;2023-06-04T12:29:29;100652.44;;;27.23;27.60
28628;BME280;15815;46.760;19.604;2023-06-04T12:32:21;100646.88;;;27.19;26.62
28628;BME280;15815;46.760;19.604;2023-06-04T12:34:47;100643.22;;;27.19;28.49
28628;BME280;15815;46.760;19.604;2023-06-04T12:37:13;100656.75;;;27.07;28.30
28628;BME280;15815;46.760;19.604;2023-06-04T12:39:39;100641.75;;;27.03;27.99
28628;BME280;15815;46.760;19.604;2023-06-04T12:42:06;100643.63;;;27.06;27.44
28628;BME280;15815;46.760;19.604;2023-06-04T12:44:39;100646.63;;;27.17;28.90
28628;BME280;15815;46.760;19.604;2023-06-04T12:47:05;100624.19;;;27.01;27.40
28628;BME280;15815;46.760;19.604;2023-06-04T12:49:31;100628.56;;;26.96;27.76
28628;BME280;15815;46.760;19.604;2023-06-04T12:51:56;100629.59;;;26.93;27.55
28628;BME280;15815;46.760;19.604;2023-06-04T12:54:22;100614.09;;;26.91;29.23